createdAt,value
2018-03-02T00:01:05.637Z,32.13
2018-03-02T00:03:34.034Z,28.58
2018-03-02T00:06:02.427Z,32.17
2018-03-02T00:08:30.773Z,30.65
2018-03-02T00:10:59.092Z,29.27
2018-03-02T00:13:27.452Z,31.30
2018-03-02T00:15:55.793Z,32.50
2018-03-02T00:18:24.204Z,32.72
2018-03-02T00:20:52.519Z,30.50
2018-03-02T00:23:20.861Z,31.67
2018-03-02T00:25:49.275Z,31.20
2018-03-02T00:28:17.624Z,30.02
2018-03-02T00:30:46.057Z,32.55
2018-03-02T00:33:14.449Z,31.27
2018-03-02T00:35:42.797Z,35.33
2018-03-02T00:38:11.154Z,33.75
2018-03-02T00:40:39.517Z,33.55
2018-03-02T00:43:08.352Z,31.00
2018-03-02T00:45:36.702Z,34.67
2018-03-02T00:48:05.098Z,36.35
2018-03-02T00:50:33.462Z,34.05
2018-03-02T00:53:01.816Z,30.75
2018-03-02T00:55:30.202Z,28.87
2018-03-02T00:57:58.526Z,33.97
2018-03-02T01:00:26.864Z,30.90
2018-03-02T01:02:55.200Z,32.17
2018-03-02T01:05:23.642Z,33.75
2018-03-02T01:07:52.058Z,31.33
2018-03-02T01:10:20.404Z,38.50
2018-03-02T01:12:48.847Z,34.75
2018-03-02T01:15:17.208Z,35.53
2018-03-02T01:17:45.603Z,33.22
2018-03-02T01:20:13.947Z,36.55
2018-03-02T01:22:42.375Z,33.42
2018-03-02T01:25:11.114Z,36.38
2018-03-02T01:27:39.447Z,36.28
2018-03-02T01:30:07.778Z,28.17
2018-03-02T01:32:36.120Z,38.05
2018-03-02T01:35:04.448Z,36.55
2018-03-02T01:37:32.860Z,34.55
2018-03-02T01:40:01.227Z,27.83
2018-03-02T01:42:29.578Z,28.55
2018-03-02T01:44:57.969Z,37.05
2018-03-02T01:47:26.409Z,33.70
2018-03-02T01:49:54.767Z,37.13
2018-03-02T01:52:23.187Z,35.08
2018-03-02T01:54:51.550Z,35.22
2018-03-02T01:57:19.972Z,37.45
2018-03-02T01:59:48.372Z,34.10
2018-03-02T02:02:16.741Z,33.78
2018-03-02T02:04:45.083Z,36.72
2018-03-02T02:07:13.443Z,36.78
2018-03-02T02:09:41.804Z,32.75
2018-03-02T02:12:10.147Z,37.65
2018-03-02T02:14:38.500Z,36.58
2018-03-02T02:17:06.856Z,38.00
2018-03-02T02:19:35.297Z,35.10
2018-03-02T02:22:03.705Z,38.25
2018-03-02T02:24:32.070Z,39.42
2018-03-02T02:27:00.393Z,33.15
2018-03-02T02:29:28.728Z,37.35
2018-03-02T02:31:57.146Z,39.85
2018-03-02T02:34:25.556Z,36.88
2018-03-02T02:36:53.936Z,34.10
2018-03-02T02:39:22.285Z,39.47
2018-03-02T02:41:50.678Z,39.38
2018-03-02T02:44:19.011Z,38.58
2018-03-02T02:46:47.746Z,39.83
2018-03-02T02:49:16.105Z,38.65
2018-03-02T02:51:44.436Z,36.13
2018-03-02T02:54:12.805Z,38.22
2018-03-02T02:56:41.199Z,40.25
2018-03-02T02:59:09.547Z,42.10
2018-03-02T03:01:37.870Z,38.28
2018-03-02T03:04:06.212Z,40.72
2018-03-02T03:06:34.546Z,41.08
2018-03-02T03:09:02.876Z,41.55
2018-03-02T03:11:31.224Z,39.38
2018-03-02T03:13:59.558Z,38.85
2018-03-02T03:16:27.943Z,41.08
2018-03-02T03:18:56.265Z,42.05
2018-03-02T03:21:24.744Z,40.35
2018-03-02T03:23:53.060Z,39.85
2018-03-02T03:26:21.507Z,38.90
2018-03-02T03:28:49.865Z,41.28
2018-03-02T03:31:18.368Z,37.78
2018-03-02T03:33:46.705Z,40.80
2018-03-02T03:36:15.064Z,41.83
2018-03-02T03:38:43.393Z,40.45
2018-03-02T03:41:11.733Z,38.47
2018-03-02T03:43:40.059Z,40.80
2018-03-02T03:46:08.522Z,40.55
2018-03-02T03:48:36.853Z,39.70
2018-03-02T03:51:05.191Z,39.38
2018-03-02T03:53:33.530Z,35.88
2018-03-02T03:56:01.872Z,36.63
2018-03-02T03:58:30.216Z,40.60
2018-03-02T04:00:58.565Z,40.30
2018-03-02T04:03:26.918Z,42.10
2018-03-02T04:05:55.258Z,40.03
2018-03-02T04:08:23.629Z,41.63
2018-03-02T04:10:52.513Z,39.40
2018-03-02T04:13:20.951Z,41.50
2018-03-02T04:15:49.605Z,44.35
2018-03-02T04:18:18.482Z,39.95
2018-03-02T04:20:47.068Z,41.92
2018-03-02T04:23:15.396Z,42.38
2018-03-02T04:25:43.733Z,42.65
2018-03-02T04:28:12.409Z,43.60
2018-03-02T04:30:40.777Z,40.00
2018-03-02T04:33:09.214Z,43.42
2018-03-02T04:35:37.596Z,42.60
2018-03-02T04:38:05.938Z,42.25
2018-03-02T04:40:34.289Z,44.92
2018-03-02T04:43:02.626Z,44.33
2018-03-02T04:45:30.958Z,43.65
2018-03-02T04:47:59.297Z,39.13
2018-03-02T04:50:27.677Z,43.50
2018-03-02T04:52:56.000Z,40.35
2018-03-02T04:55:24.412Z,40.22
2018-03-02T04:57:52.744Z,42.15
2018-03-02T05:00:21.088Z,42.22
2018-03-02T05:02:49.421Z,39.22
2018-03-02T05:05:17.810Z,40.25
2018-03-02T05:07:47.123Z,40.63
2018-03-02T05:10:15.505Z,45.35
2018-03-02T05:12:43.890Z,41.03
2018-03-02T05:15:12.234Z,42.17
2018-03-02T05:17:40.571Z,44.05
2018-03-02T05:20:08.921Z,42.13
2018-03-02T05:22:37.258Z,44.75
2018-03-02T05:25:05.640Z,46.15
2018-03-02T05:27:33.977Z,42.30
2018-03-02T05:30:02.422Z,43.90
2018-03-02T05:32:30.870Z,41.92
2018-03-02T05:34:59.239Z,43.08
2018-03-02T05:37:27.621Z,42.60
2018-03-02T05:39:55.964Z,43.17
2018-03-02T05:42:24.329Z,41.37
2018-03-02T05:44:52.671Z,44.08
2018-03-02T05:47:21.029Z,44.38
2018-03-02T05:49:49.336Z,42.33
2018-03-02T05:52:17.677Z,45.65
2018-03-02T05:54:45.999Z,43.00
2018-03-02T05:57:14.441Z,42.67
2018-03-02T05:59:42.771Z,45.83
2018-03-02T06:02:11.123Z,43.78
2018-03-02T06:04:39.517Z,44.30
2018-03-02T06:07:07.923Z,40.67
2018-03-02T06:09:36.252Z,41.50
2018-03-02T06:12:04.631Z,42.97
2018-03-02T06:14:32.962Z,44.53
2018-03-02T06:17:01.296Z,40.95
2018-03-02T06:19:29.667Z,40.83
2018-03-02T06:21:58.108Z,40.75
2018-03-02T06:24:26.475Z,45.92
2018-03-02T06:26:54.861Z,44.10
2018-03-02T06:29:23.218Z,41.78
2018-03-02T06:31:51.626Z,46.17
2018-03-02T06:34:20.046Z,42.55
2018-03-02T06:36:48.410Z,43.17
2018-03-02T06:39:16.754Z,46.37
2018-03-02T06:41:45.086Z,41.00
2018-03-02T06:44:13.487Z,41.53
2018-03-02T06:46:41.827Z,41.63
2018-03-02T06:49:10.154Z,42.05
2018-03-02T06:51:38.511Z,42.50
2018-03-02T06:54:06.947Z,41.97
2018-03-02T06:56:35.338Z,43.40
2018-03-02T06:59:03.737Z,43.00
2018-03-02T07:01:32.075Z,45.85
2018-03-02T07:04:00.410Z,41.27
2018-03-02T07:06:28.761Z,44.25
2018-03-02T07:08:57.121Z,43.17
2018-03-02T07:11:25.524Z,42.03
2018-03-02T07:13:53.916Z,43.10
2018-03-02T07:16:22.292Z,42.58
2018-03-02T07:18:50.670Z,45.27
2018-03-02T07:21:18.986Z,45.20
2018-03-02T07:23:47.372Z,45.10
2018-03-02T07:26:15.705Z,42.00
2018-03-02T07:28:44.042Z,42.23
2018-03-02T07:31:12.426Z,42.73
2018-03-02T07:33:40.758Z,45.57
2018-03-02T07:36:09.096Z,41.57
2018-03-02T07:38:37.499Z,38.10
2018-03-02T07:41:05.830Z,35.43
2018-03-02T07:43:34.269Z,34.63
2018-03-02T07:46:02.584Z,34.47
2018-03-02T07:48:30.910Z,34.93
2018-03-02T07:50:59.258Z,34.87
2018-03-02T07:53:27.596Z,36.83
2018-03-02T07:55:55.948Z,36.27
2018-03-02T07:58:24.299Z,39.20
2018-03-02T08:00:52.658Z,37.93
2018-03-02T08:03:21.071Z,35.13
2018-03-02T08:05:49.529Z,34.43
2018-03-02T08:08:17.853Z,33.87
2018-03-02T08:10:46.207Z,34.27
2018-03-02T08:13:14.536Z,31.70
2018-03-02T08:15:42.986Z,35.47
2018-03-02T08:18:11.321Z,35.43
2018-03-02T08:20:39.657Z,36.97
2018-03-02T08:23:07.971Z,39.07
2018-03-02T08:25:36.285Z,39.30
2018-03-02T08:28:04.628Z,38.73
2018-03-02T08:30:33.027Z,38.47
2018-03-02T08:33:01.357Z,40.40
2018-03-02T08:35:29.681Z,39.30
2018-03-02T08:37:58.014Z,40.37
2018-03-02T08:40:26.334Z,38.77
2018-03-02T08:42:54.669Z,41.20
2018-03-02T08:45:23.015Z,39.67
2018-03-02T08:47:51.460Z,37.80
2018-03-02T08:50:19.861Z,41.63
2018-03-02T08:52:48.166Z,38.37
2018-03-02T08:55:16.584Z,39.60
2018-03-02T08:57:44.941Z,39.97
2018-03-02T09:00:13.240Z,38.70
2018-03-02T09:02:41.562Z,38.83
2018-03-02T09:05:09.894Z,43.53
2018-03-02T09:07:38.207Z,40.07
2018-03-02T09:10:06.696Z,37.60
2018-03-02T09:12:34.977Z,36.33
2018-03-02T09:15:03.362Z,38.30
2018-03-02T09:17:31.751Z,36.43
2018-03-02T09:20:00.151Z,38.60
2018-03-02T09:22:28.472Z,39.07
2018-03-02T09:24:56.812Z,35.63
2018-03-02T09:27:25.126Z,36.27
2018-03-02T09:29:53.440Z,35.07
2018-03-02T09:32:21.777Z,33.93
2018-03-02T09:34:50.103Z,35.80
2018-03-02T09:37:18.440Z,35.07
2018-03-02T09:39:46.868Z,36.63
2018-03-02T09:42:15.287Z,35.20
2018-03-02T09:44:43.666Z,35.10
2018-03-02T09:47:12.005Z,36.20
2018-03-02T09:49:40.326Z,35.50
2018-03-02T09:52:08.738Z,35.50
2018-03-02T09:54:37.053Z,36.80
2018-03-02T09:57:05.669Z,31.27
2018-03-02T09:59:34.006Z,35.47
2018-03-02T10:02:02.328Z,35.53
2018-03-02T10:04:30.689Z,36.90
2018-03-02T10:06:59.099Z,36.13
2018-03-02T10:09:27.534Z,37.00
2018-03-02T10:11:55.987Z,35.87
2018-03-02T10:14:24.376Z,37.73
2018-03-02T10:16:52.768Z,35.90
2018-03-02T10:19:21.209Z,39.63
2018-03-02T10:21:49.540Z,34.37
2018-03-02T10:24:17.917Z,39.63
2018-03-02T10:26:46.241Z,38.93
2018-03-02T10:29:14.931Z,39.07
2018-03-02T10:31:43.301Z,37.93
2018-03-02T10:34:11.678Z,37.03
2018-03-02T10:36:40.115Z,36.37
2018-03-02T10:39:08.454Z,36.30
2018-03-02T10:41:36.897Z,39.77
2018-03-02T10:44:05.225Z,41.30
2018-03-02T10:46:33.561Z,40.10
2018-03-02T10:49:01.911Z,37.10
2018-03-02T10:51:30.366Z,39.17
2018-03-02T10:53:58.747Z,39.33
2018-03-02T10:56:27.062Z,38.77
2018-03-02T10:58:55.406Z,40.17
2018-03-02T11:01:26.456Z,41.93
2018-03-02T11:04:00.336Z,39.57
2018-03-02T11:06:28.645Z,38.40
2018-03-02T11:08:57.301Z,40.20
2018-03-02T11:11:25.713Z,42.27
2018-03-02T11:13:54.049Z,41.53
2018-03-02T11:16:22.377Z,43.37
2018-03-02T11:18:50.705Z,42.00
2018-03-02T11:21:19.023Z,45.93
2018-03-02T11:23:47.514Z,42.97
2018-03-02T11:26:15.850Z,44.87
2018-03-02T11:28:44.295Z,45.90
2018-03-02T11:31:12.639Z,45.53
2018-03-02T11:33:41.012Z,45.87
2018-03-02T11:36:09.958Z,46.33
2018-03-02T11:38:38.372Z,45.37
2018-03-02T11:41:06.714Z,44.50
2018-03-02T11:43:35.087Z,41.97
2018-03-02T11:46:03.491Z,44.77
2018-03-02T11:48:31.908Z,44.93
2018-03-02T11:51:00.294Z,44.23
2018-03-02T11:53:28.613Z,47.77
2018-03-02T11:55:56.938Z,43.70
2018-03-02T11:58:25.271Z,42.77
2018-03-02T12:00:53.609Z,46.13
2018-03-02T12:03:21.960Z,49.47
2018-03-02T12:05:50.266Z,46.77
2018-03-02T12:08:18.618Z,45.17
2018-03-02T12:10:46.937Z,44.03
2018-03-02T12:13:15.306Z,40.43
2018-03-02T12:15:43.708Z,43.27
2018-03-02T12:18:12.030Z,47.03
2018-03-02T12:20:40.381Z,50.33
2018-03-02T12:23:08.758Z,45.17
2018-03-02T12:25:37.176Z,44.63
2018-03-02T12:28:05.480Z,46.23
2018-03-02T12:30:33.809Z,42.63
2018-03-02T12:33:02.292Z,43.07
2018-03-02T12:35:30.606Z,38.90
2018-03-02T12:37:59.038Z,42.90
2018-03-02T12:40:28.650Z,44.50
2018-03-02T12:42:57.071Z,42.67
2018-03-02T12:45:25.412Z,44.53
2018-03-02T12:47:53.741Z,44.47
2018-03-02T12:50:23.033Z,46.47
2018-03-02T12:52:51.434Z,43.07
2018-03-02T12:55:19.825Z,42.47
2018-03-02T12:57:48.206Z,42.97
2018-03-02T13:00:16.512Z,43.10
2018-03-02T13:02:44.892Z,41.20
2018-03-02T13:05:13.279Z,42.00
2018-03-02T13:07:41.670Z,40.53
2018-03-02T13:10:10.061Z,43.10
2018-03-02T13:12:38.392Z,42.20
2018-03-02T13:15:06.719Z,41.20
2018-03-02T13:17:35.146Z,41.07
2018-03-02T13:20:03.464Z,43.83
2018-03-02T13:22:40.762Z,42.90
2018-03-02T13:25:09.131Z,42.40
2018-03-02T13:27:49.402Z,40.70
2018-03-02T13:30:17.721Z,39.43
2018-03-02T13:35:45.072Z,41.10
2018-03-02T13:38:13.411Z,40.93
2018-03-02T13:40:53.677Z,43.73
2018-03-02T13:43:22.017Z,41.97
2018-03-02T13:45:50.904Z,40.73
2018-03-02T13:48:40.009Z,41.53
2018-03-02T13:51:08.438Z,39.60
2018-03-02T13:53:36.770Z,39.93
2018-03-02T13:56:05.088Z,39.23
2018-03-02T13:58:33.418Z,42.53
2018-03-02T14:01:01.732Z,40.03
2018-03-02T14:03:42.011Z,37.83
2018-03-02T14:06:10.343Z,43.43
2018-03-02T14:08:38.656Z,39.37
2018-03-02T14:11:07.022Z,42.67
2018-03-02T14:13:35.438Z,40.83
2018-03-02T14:16:03.747Z,42.40
2018-03-02T14:18:32.111Z,41.07
2018-03-02T14:21:00.444Z,41.67
2018-03-02T14:23:28.750Z,39.00
2018-03-02T14:25:57.100Z,41.90
2018-03-02T14:28:25.468Z,41.70
2018-03-02T14:30:53.803Z,37.83
2018-03-02T14:33:22.146Z,43.17
2018-03-02T14:35:50.704Z,39.80
2018-03-02T14:38:19.017Z,37.80
2018-03-02T14:40:47.339Z,38.37
2018-03-02T14:43:15.674Z,38.33
2018-03-02T14:45:44.132Z,36.53
2018-03-02T14:48:12.497Z,36.53
2018-03-02T14:50:40.858Z,36.30
2018-03-02T14:53:09.180Z,37.47
2018-03-02T14:55:37.536Z,35.87
2018-03-02T14:58:05.881Z,39.30
2018-03-02T15:00:34.248Z,39.30
2018-03-02T15:03:02.620Z,35.87
2018-03-02T15:05:31.039Z,36.50
2018-03-02T15:07:59.397Z,35.13
2018-03-02T15:10:27.833Z,37.47
2018-03-02T15:12:56.216Z,36.93
2018-03-02T15:15:24.579Z,34.67
2018-03-02T15:17:53.023Z,38.50
2018-03-02T15:20:21.504Z,36.63
2018-03-02T15:22:49.842Z,34.30
2018-03-02T15:25:18.181Z,37.57
2018-03-02T15:27:46.517Z,37.77
2018-03-02T15:30:14.913Z,34.13
2018-03-02T15:32:43.246Z,37.90
2018-03-02T15:35:11.588Z,35.07
2018-03-02T15:37:39.922Z,36.40
2018-03-02T15:40:08.249Z,35.60
2018-03-02T15:42:36.665Z,34.20
2018-03-02T15:45:05.011Z,36.77
2018-03-02T15:47:33.502Z,36.33
2018-03-02T15:50:01.862Z,34.97
2018-03-02T15:52:30.172Z,33.40
2018-03-02T15:54:58.506Z,36.87
2018-03-02T15:57:26.843Z,37.00
2018-03-02T15:59:55.282Z,37.13
2018-03-02T16:02:23.653Z,32.20
2018-03-02T16:04:51.999Z,35.77
2018-03-02T16:07:20.343Z,34.20
2018-03-02T16:09:48.687Z,34.80
2018-03-02T16:12:17.026Z,34.07
2018-03-02T16:14:45.371Z,31.57
2018-03-02T16:17:13.709Z,34.30
2018-03-02T16:19:42.076Z,33.73
2018-03-02T16:22:10.476Z,32.07
2018-03-02T16:24:38.813Z,34.47
2018-03-02T16:27:07.137Z,34.00
2018-03-02T16:29:35.470Z,35.27
2018-03-02T16:32:03.859Z,33.70
2018-03-02T16:34:32.200Z,33.87
2018-03-02T16:37:00.515Z,34.30
2018-03-02T16:39:28.860Z,34.73
2018-03-02T16:41:57.238Z,34.27
2018-03-02T16:44:25.663Z,29.87
2018-03-02T16:46:54.005Z,33.90
2018-03-02T16:49:22.386Z,31.00
2018-03-02T16:51:50.801Z,34.87
2018-03-02T16:54:19.277Z,29.90
2018-03-02T16:56:47.587Z,32.43
2018-03-02T16:59:15.964Z,32.77
2018-03-02T17:01:44.300Z,30.87
2018-03-02T17:04:12.687Z,30.63
2018-03-02T17:06:41.039Z,32.50
2018-03-02T17:09:09.366Z,24.80
2018-03-02T17:11:37.717Z,31.73
2018-03-02T17:14:06.050Z,31.53
2018-03-02T17:16:34.388Z,30.77
2018-03-02T17:19:02.710Z,31.10
2018-03-02T17:21:31.071Z,28.27
2018-03-02T17:23:59.416Z,30.50
2018-03-02T17:26:27.750Z,27.47
2018-03-02T17:28:56.078Z,30.83
2018-03-02T17:31:24.437Z,29.00
2018-03-02T17:33:52.769Z,28.60
2018-03-02T17:36:23.128Z,31.43
2018-03-02T17:38:56.491Z,30.23
2018-03-02T17:41:24.972Z,26.77
2018-03-02T17:43:53.452Z,31.20
2018-03-02T17:46:21.798Z,29.40
2018-03-02T17:48:50.159Z,29.57
2018-03-02T17:51:18.477Z,29.90
2018-03-02T17:53:46.829Z,29.17
2018-03-02T17:56:15.153Z,28.90
2018-03-02T17:58:43.487Z,29.23
2018-03-02T18:01:11.833Z,30.63
2018-03-02T18:03:40.166Z,29.57
2018-03-02T18:06:08.514Z,30.27
2018-03-02T18:08:36.845Z,28.93
2018-03-02T18:11:05.200Z,26.47
2018-03-02T18:13:33.567Z,27.20
2018-03-02T18:16:01.965Z,27.87
2018-03-02T18:18:30.299Z,29.37
2018-03-02T18:20:58.636Z,29.43
2018-03-02T18:23:26.986Z,30.27
2018-03-02T18:25:55.315Z,27.37
2018-03-02T18:28:23.719Z,29.33
2018-03-02T18:30:52.063Z,28.53
2018-03-02T18:33:20.410Z,29.23
2018-03-02T18:35:48.728Z,29.07
2018-03-02T18:38:17.836Z,27.90
2018-03-02T18:40:46.160Z,27.03
2018-03-02T18:43:14.517Z,26.40
2018-03-02T18:45:42.846Z,28.07
2018-03-02T18:48:11.250Z,27.87
2018-03-02T18:50:39.642Z,28.37
2018-03-02T18:53:08.034Z,26.77
2018-03-02T18:55:36.364Z,27.20
2018-03-02T18:58:04.697Z,26.37
2018-03-02T19:00:33.109Z,31.17
2018-03-02T19:03:01.501Z,26.87
2018-03-02T19:05:29.833Z,26.90
2018-03-02T19:07:58.167Z,26.13
2018-03-02T19:10:26.612Z,28.03
2018-03-02T19:12:54.982Z,26.57
2018-03-02T19:15:23.386Z,27.93
2018-03-02T19:17:51.918Z,27.80
2018-03-02T19:20:20.253Z,27.30
2018-03-02T19:22:48.643Z,26.83
2018-03-02T19:25:17.007Z,24.17
2018-03-02T19:27:45.425Z,26.63
2018-03-02T19:30:13.777Z,25.00
2018-03-02T19:32:42.107Z,25.10
2018-03-02T19:35:10.474Z,27.73
2018-03-02T19:37:38.798Z,25.47
2018-03-02T19:40:07.135Z,26.93
2018-03-02T19:42:35.466Z,24.30
2018-03-02T19:45:03.859Z,24.70
2018-03-02T19:47:32.275Z,26.00
2018-03-02T19:50:00.617Z,25.27
2018-03-02T19:52:28.966Z,26.40
2018-03-02T19:54:57.344Z,24.97
2018-03-02T19:57:25.698Z,24.47
2018-03-02T19:59:54.045Z,23.47
2018-03-02T20:02:22.397Z,24.63
2018-03-02T20:04:50.725Z,24.47
2018-03-02T20:07:19.185Z,25.47
2018-03-02T20:09:47.506Z,22.10
2018-03-02T20:12:15.898Z,24.93
2018-03-02T20:14:44.210Z,24.87
2018-03-02T20:17:12.713Z,22.57
2018-03-02T20:19:41.049Z,26.70
2018-03-02T20:22:09.436Z,26.43
2018-03-02T20:24:37.830Z,26.13
2018-03-02T20:27:06.216Z,27.77
2018-03-02T20:29:34.623Z,25.03
2018-03-02T20:32:02.948Z,28.20
2018-03-02T20:34:31.300Z,27.20
2018-03-02T20:36:59.670Z,25.47
2018-03-02T20:39:28.095Z,26.53
2018-03-02T20:41:56.501Z,27.03
2018-03-02T20:44:24.831Z,27.23
2018-03-02T20:46:53.212Z,25.63
2018-03-02T20:49:21.544Z,25.33
2018-03-02T20:51:49.947Z,27.47
2018-03-02T20:54:18.282Z,27.00
2018-03-02T20:56:46.629Z,25.07
2018-03-02T20:59:14.973Z,28.03
2018-03-02T21:01:43.295Z,27.37
2018-03-02T21:04:11.701Z,28.47
2018-03-02T21:06:40.045Z,25.97
2018-03-02T21:09:08.385Z,27.97
2018-03-02T21:11:36.720Z,28.37
2018-03-02T21:14:05.068Z,25.70
2018-03-02T21:16:33.391Z,24.67
2018-03-02T21:19:01.713Z,24.20
2018-03-02T21:21:30.038Z,27.20
2018-03-02T21:23:58.568Z,28.00
2018-03-02T21:26:26.911Z,26.90
2018-03-02T21:28:55.299Z,25.10
2018-03-02T21:31:23.627Z,25.97
2018-03-02T21:33:52.041Z,24.57
2018-03-02T21:36:20.514Z,25.23
2018-03-02T21:38:48.847Z,26.83
2018-03-02T21:41:17.186Z,24.37
2018-03-02T21:43:45.604Z,24.43
2018-03-02T21:46:13.929Z,26.10
2018-03-02T21:48:42.249Z,24.20
2018-03-02T21:51:10.595Z,25.30
2018-03-02T21:53:38.935Z,26.03
2018-03-02T21:56:07.383Z,27.50
2018-03-02T21:58:35.691Z,26.63
2018-03-02T22:01:04.025Z,26.17
2018-03-02T22:03:32.361Z,29.60
2018-03-02T22:06:00.692Z,28.13
2018-03-02T22:08:29.124Z,26.30
2018-03-02T22:10:57.485Z,24.80
2018-03-02T22:13:26.923Z,24.13
2018-03-02T22:15:55.264Z,25.30
2018-03-02T22:18:23.914Z,27.20
2018-03-02T22:20:52.297Z,27.23
2018-03-02T22:23:20.748Z,26.10
2018-03-02T22:25:49.184Z,27.37
2018-03-02T22:28:17.511Z,25.30
2018-03-02T22:30:45.853Z,27.20
2018-03-02T22:33:14.288Z,26.20
2018-03-02T22:35:42.605Z,26.03
2018-03-02T22:38:11.027Z,25.67
2018-03-02T22:40:39.361Z,26.13
2018-03-02T22:43:07.686Z,26.70
2018-03-02T22:45:36.090Z,24.13
2018-03-02T22:48:04.408Z,26.00
2018-03-02T22:50:32.741Z,24.40
2018-03-02T22:53:01.115Z,26.83
2018-03-02T22:55:29.460Z,26.30
2018-03-02T22:57:57.856Z,27.33
2018-03-02T23:00:26.196Z,27.53
2018-03-02T23:02:54.977Z,27.23
2018-03-02T23:05:23.315Z,27.70
2018-03-02T23:07:51.670Z,25.50
2018-03-02T23:10:20.028Z,24.93
2018-03-02T23:12:48.354Z,26.27
2018-03-02T23:15:16.704Z,26.97
2018-03-02T23:17:45.100Z,26.17
2018-03-02T23:20:13.433Z,27.27
2018-03-02T23:22:41.785Z,25.50
2018-03-02T23:25:10.118Z,29.47
2018-03-02T23:27:38.450Z,29.03
2018-03-02T23:30:06.887Z,25.83
2018-03-02T23:32:35.239Z,28.77
2018-03-02T23:35:03.548Z,27.67
2018-03-02T23:37:31.935Z,29.40
2018-03-02T23:40:00.299Z,23.80
2018-03-02T23:42:28.727Z,26.08
2018-03-02T23:44:57.108Z,27.63
2018-03-02T23:47:25.469Z,25.45
2018-03-02T23:49:53.885Z,28.10
2018-03-02T23:52:23.460Z,25.48
2018-03-02T23:54:51.810Z,27.92
2018-03-02T23:57:20.157Z,27.55
2018-03-02T23:59:48.578Z,29.63
